createdAt,value
2019-05-03T00:02:26.795Z,20.27
2019-05-03T00:07:32.932Z,21.50
2019-05-03T00:12:37.694Z,23.73
2019-05-03T00:17:47.403Z,27.30
2019-05-03T00:23:02.963Z,22.48
2019-05-03T00:28:02.067Z,26.00
2019-05-03T00:33:08.063Z,25.20
2019-05-03T00:38:26.037Z,21.65
2019-05-03T00:43:32.886Z,24.23
2019-05-03T00:48:47.020Z,22.17
2019-05-03T00:53:58.540Z,20.00
2019-05-03T00:59:09.231Z,20.02
2019-05-03T01:04:26.184Z,21.12
2019-05-03T01:09:43.645Z,19.82
2019-05-03T01:15:04.100Z,21.50
2019-05-03T01:20:02.970Z,22.25
2019-05-03T01:25:12.549Z,20.55
2019-05-03T01:30:22.704Z,15.23
2019-05-03T01:35:38.543Z,21.62
2019-05-03T01:41:01.773Z,21.15
2019-05-03T01:46:12.005Z,25.20
2019-05-03T01:51:33.270Z,25.35
2019-05-03T01:56:56.108Z,19.35
2019-05-03T02:02:15.835Z,24.80
2019-05-03T02:13:12.288Z,24.18
2019-05-03T02:18:25.781Z,23.02
2019-05-03T02:23:12.002Z,25.85
2019-05-03T02:28:25.942Z,20.32
2019-05-03T02:33:57.842Z,21.73
2019-05-03T02:38:50.373Z,24.00
2019-05-03T02:43:55.819Z,19.87
2019-05-03T02:49:06.453Z,24.80
2019-05-03T02:54:46.395Z,22.37
2019-05-03T02:59:22.652Z,25.23
2019-05-03T03:04:35.587Z,23.42
2019-05-03T03:09:45.275Z,26.93
2019-05-03T03:15:00.130Z,19.90
2019-05-03T03:20:49.443Z,22.13
2019-05-03T03:25:55.932Z,25.68
2019-05-03T03:31:38.684Z,23.47
2019-05-03T03:37:10.355Z,25.48
2019-05-03T03:42:15.830Z,26.45
2019-05-03T03:48:55.941Z,24.80
2019-05-03T03:52:38.828Z,20.50
2019-05-03T03:57:42.373Z,24.37
2019-05-03T04:02:57.543Z,24.92
2019-05-03T04:08:05.879Z,25.75
2019-05-03T04:13:19.891Z,28.47
2019-05-03T04:18:45.654Z,29.55
2019-05-03T04:23:55.499Z,25.35
2019-05-03T04:29:09.260Z,28.23
2019-05-03T04:34:40.531Z,24.50
2019-05-03T04:39:50.931Z,26.45
2019-05-03T04:45:00.874Z,26.20
2019-05-03T04:50:16.062Z,25.02
2019-05-03T04:55:26.491Z,25.72
2019-05-03T05:01:07.767Z,23.90
2019-05-03T05:05:59.551Z,27.35
2019-05-03T05:11:26.309Z,22.60
2019-05-03T05:16:39.645Z,28.75
2019-05-03T05:27:23.046Z,24.45
2019-05-03T05:32:28.882Z,19.00
2019-05-03T05:37:35.112Z,18.92
2019-05-03T05:42:39.086Z,21.65
2019-05-03T05:47:47.393Z,18.87
2019-05-03T05:52:56.229Z,23.07
2019-05-03T05:58:07.952Z,18.05
2019-05-03T06:03:11.093Z,15.88
2019-05-03T06:08:26.139Z,12.35
2019-05-03T06:13:37.412Z,13.30
2019-05-03T06:18:58.771Z,14.73
2019-05-03T06:24:16.434Z,14.87
2019-05-03T06:29:22.141Z,19.15
2019-05-03T06:34:32.792Z,14.38
2019-05-03T06:39:37.057Z,13.72
2019-05-03T06:44:41.286Z,13.60
2019-05-03T06:49:48.404Z,14.20
2019-05-03T06:55:06.520Z,13.43
2019-05-03T07:00:11.245Z,14.05
2019-05-03T07:05:29.229Z,11.78
2019-05-03T07:10:38.476Z,11.65
2019-05-03T07:15:42.768Z,12.80
2019-05-03T07:20:54.377Z,11.73
2019-05-03T07:25:57.517Z,11.93
2019-05-03T07:31:01.738Z,10.90
2019-05-03T07:36:06.407Z,11.55
2019-05-03T07:41:10.637Z,15.90
2019-05-03T07:46:15.205Z,12.28
2019-05-03T07:51:19.431Z,7.60
2019-05-03T07:56:25.508Z,12.15
2019-05-03T08:01:31.711Z,11.88
2019-05-03T08:06:35.915Z,8.05
2019-05-03T08:11:40.131Z,8.35
2019-05-03T08:16:45.638Z,9.13
2019-05-03T08:21:49.973Z,10.82
2019-05-03T08:26:55.775Z,12.43
2019-05-03T08:32:18.011Z,9.65
2019-05-03T08:37:24.477Z,9.10
2019-05-03T08:42:28.855Z,7.75
2019-05-03T08:47:34.501Z,8.13
2019-05-03T08:52:38.770Z,10.60
2019-05-03T08:57:44.775Z,13.18
2019-05-03T09:02:49.192Z,9.35
2019-05-03T09:07:54.891Z,10.80
2019-05-03T09:13:07.136Z,13.95
2019-05-03T09:18:14.179Z,9.93
2019-05-03T09:23:17.299Z,12.15
2019-05-03T09:28:21.520Z,9.30
2019-05-03T09:33:25.906Z,9.95
2019-05-03T09:38:30.101Z,14.25
2019-05-03T09:43:35.699Z,9.30
2019-05-03T09:48:40.086Z,11.38
2019-05-03T09:53:45.931Z,8.78
2019-05-03T09:58:50.202Z,8.68
2019-05-03T10:03:55.172Z,11.60
2019-05-03T10:08:59.391Z,8.18
2019-05-03T10:14:05.307Z,10.08
2019-05-03T10:19:09.524Z,8.53
2019-05-03T10:24:15.233Z,9.48
2019-05-03T10:29:19.483Z,11.80
2019-05-03T10:34:24.797Z,8.23
2019-05-03T10:39:29.095Z,9.73
2019-05-03T10:44:35.741Z,9.50
2019-05-03T10:49:39.276Z,8.00
2019-05-03T10:54:43.545Z,6.92
2019-05-03T10:59:47.777Z,11.10
2019-05-03T11:04:52.056Z,7.65
2019-05-03T11:09:57.068Z,10.95
2019-05-03T11:15:01.259Z,8.38
2019-05-03T11:20:06.344Z,11.75
2019-05-03T11:25:11.095Z,12.82
2019-05-03T11:30:15.803Z,21.05
2019-05-03T11:35:30.658Z,9.73
2019-05-03T11:40:34.877Z,9.23
2019-05-03T11:45:39.106Z,11.48
2019-05-03T11:50:45.387Z,14.60
2019-05-03T11:55:49.662Z,12.07
2019-05-03T12:01:11.168Z,9.60
2019-05-03T12:06:01.438Z,12.00
2019-05-03T12:11:05.883Z,8.20
2019-05-03T12:16:17.624Z,8.65
2019-05-03T12:21:18.130Z,11.38
2019-05-03T12:26:40.428Z,9.48
2019-05-03T12:31:38.023Z,11.75
2019-05-03T12:36:39.248Z,13.95
2019-05-03T12:41:43.634Z,23.77
2019-05-03T12:46:47.841Z,9.35
2019-05-03T12:51:52.118Z,10.53
2019-05-03T12:56:57.105Z,10.58
2019-05-03T13:02:05.634Z,9.80
2019-05-03T13:07:27.851Z,12.10
2019-05-03T13:12:32.186Z,10.58
2019-05-03T13:17:36.890Z,12.23
2019-05-03T13:22:41.086Z,15.10
2019-05-03T13:27:46.260Z,12.20
2019-05-03T13:32:50.795Z,11.38
2019-05-03T13:37:55.647Z,14.98
2019-05-03T13:43:03.774Z,13.20
2019-05-03T13:48:06.045Z,11.43
2019-05-03T13:53:10.272Z,12.00
2019-05-03T13:58:14.826Z,11.95
2019-05-03T14:03:19.228Z,12.65
2019-05-03T14:08:26.462Z,11.70
2019-05-03T14:13:30.684Z,13.85
2019-05-03T14:18:35.579Z,13.85
2019-05-03T14:23:57.956Z,15.75
2019-05-03T14:29:02.196Z,13.70
2019-05-03T14:34:06.472Z,11.73
2019-05-03T14:39:10.766Z,16.10
2019-05-03T14:44:17.897Z,19.65
2019-05-03T14:49:20.989Z,15.83
2019-05-03T14:54:26.973Z,16.05
2019-05-03T14:59:41.991Z,15.70
2019-05-03T15:04:46.553Z,16.75
2019-05-03T15:09:50.925Z,14.80
2019-05-03T15:14:55.170Z,15.03
2019-05-03T15:19:59.365Z,14.87
2019-05-03T15:25:05.161Z,16.32
2019-05-03T15:30:09.706Z,10.45
2019-05-03T15:35:15.201Z,13.38
2019-05-03T15:40:19.565Z,15.83
2019-05-03T15:45:25.431Z,11.48
2019-05-03T15:50:29.642Z,13.20
2019-05-03T15:55:33.815Z,10.88
2019-05-03T16:00:38.031Z,12.88
2019-05-03T16:05:42.275Z,11.68
2019-05-03T16:10:55.321Z,15.78
2019-05-03T16:15:59.506Z,13.10
2019-05-03T16:21:05.018Z,15.50
2019-05-03T16:26:09.511Z,13.88
2019-05-03T16:31:15.375Z,12.98
2019-05-03T16:36:19.588Z,15.85
2019-05-03T16:41:24.864Z,16.23
2019-05-03T16:46:29.248Z,11.88
2019-05-03T16:51:34.918Z,11.03
2019-05-03T16:56:44.326Z,12.75
2019-05-03T17:01:49.105Z,11.53
2019-05-03T17:07:07.309Z,11.28
2019-05-03T17:12:28.419Z,11.05
2019-05-03T17:17:34.477Z,12.68
2019-05-03T17:22:38.942Z,13.75
2019-05-03T17:27:44.918Z,10.45
2019-05-03T17:32:49.434Z,10.93
2019-05-03T17:37:54.667Z,12.15
2019-05-03T17:43:06.567Z,11.70
2019-05-03T17:48:11.014Z,9.43
2019-05-03T17:53:22.891Z,9.80
2019-05-03T17:58:31.552Z,10.98
2019-05-03T18:03:49.653Z,10.08
2019-05-03T18:09:01.673Z,12.18
2019-05-03T18:14:06.049Z,11.93
2019-05-03T18:19:10.272Z,15.95
2019-05-03T18:24:15.364Z,14.95
2019-05-03T18:29:19.630Z,15.32
2019-05-03T18:34:24.952Z,21.07
2019-05-03T18:39:29.390Z,11.80
2019-05-03T18:44:47.203Z,12.03
2019-05-03T18:49:51.583Z,11.55
2019-05-03T18:54:55.788Z,13.93
2019-05-03T19:00:00.000Z,15.18
2019-05-03T19:05:07.572Z,11.93
2019-05-03T19:10:21.300Z,13.40
2019-05-03T19:15:25.923Z,10.85
2019-05-03T19:20:30.179Z,17.12
2019-05-03T19:25:45.904Z,14.38
2019-05-03T19:30:42.144Z,11.38
2019-05-03T19:59:26.255Z,11.18
2019-05-03T20:39:39.840Z,13.22
2019-05-03T20:45:02.411Z,16.10
2019-05-03T20:50:44.600Z,14.90
2019-05-03T20:56:08.556Z,14.87
2019-05-03T21:01:17.273Z,11.68
2019-05-03T21:06:34.867Z,10.48
2019-05-03T21:11:35.533Z,12.98
2019-05-03T21:16:45.129Z,10.13
2019-05-03T21:21:54.937Z,9.98
2019-05-03T21:27:01.746Z,9.90
2019-05-03T21:32:07.862Z,9.43
2019-05-03T21:37:17.872Z,7.55
2019-05-03T21:42:25.518Z,8.98
2019-05-03T21:47:47.455Z,12.13
2019-05-03T21:52:58.663Z,10.13
2019-05-03T21:58:04.667Z,11.97
2019-05-03T22:03:11.259Z,15.30
2019-05-03T22:13:54.261Z,11.18
2019-05-03T22:19:06.387Z,10.63
2019-05-03T22:24:26.568Z,8.85
2019-05-03T22:29:35.659Z,10.25
2019-05-03T22:34:41.481Z,12.53
2019-05-03T22:39:50.559Z,9.83
2019-05-03T22:44:56.911Z,10.58
2019-05-03T22:50:07.089Z,13.32
2019-05-03T22:55:15.662Z,12.95
2019-05-03T23:00:21.051Z,15.13
2019-05-03T23:05:29.792Z,15.75
2019-05-03T23:10:39.894Z,20.85
2019-05-03T23:15:41.706Z,16.25
2019-05-03T23:20:57.908Z,19.07
2019-05-03T23:26:05.205Z,18.77
2019-05-03T23:31:15.532Z,22.02
2019-05-03T23:36:32.765Z,22.77
2019-05-03T23:41:30.642Z,25.45
2019-05-03T23:46:38.366Z,19.45
2019-05-03T23:52:15.385Z,17.50
2019-05-03T23:57:20.454Z,23.50
